Sedgwick Reserve, California Weather observations

Data are for 10 minute period ending at time listed.
 Day   Time   Solar   Ave.   Ave.  Ave.  Vector  Max.   Baro.   Total    
  of    of     Rad.   Air    Rel.  Wind   Wind   Wind  Press.  Precip.   
Year   Day            Temp.  Hum.  Speed  Dir.   Gust                    
2026   (PST)  Kw/m2    F      %     mph   deg.    mph    mb.     in.     
-------------------------------------------------------------------------
 123   20:50   0.00   53.7    77    7.7   284    13.1   974.7    0.00 
 123   21:00   0.00   53.4    78    6.9   283     9.6   974.7    0.00 
 123   21:10   0.00   53.3    79    5.9   285    10.8   974.7    0.00 
 123   21:20   0.00   53.2    78    5.5   285     8.3   974.8    0.00 
 123   21:30   0.00   53.2    78    4.5   310     6.8   974.7    0.00 
 123   21:40   0.00   53.2    76    3.9   325     6.8   974.6    0.00 
 123   21:50   0.00   53.0    75    3.4   322     6.7   974.5    0.00 
 123   22:00   0.00   52.8    75    0.3     8     1.9   974.6    0.00 
 123   22:10   0.00   52.2    77    1.2   209     2.0   974.6    0.00 
 123   22:20   0.00   51.8    78    1.4   175     3.9   974.7    0.00 
 123   22:30   0.00   50.7    81    2.2   143     3.8   974.8    0.00 
 123   22:40   0.00   50.1    82    1.0   136     2.1   974.8    0.00 
 123   22:50   0.00   49.4    84    1.2   281     3.4   975.1    0.00 
 123   23:00   0.00   48.7    85    0.7    13     1.5   975.0    0.00 
 123   23:10   0.00   47.4    87    3.5     9     5.4   975.0    0.00 
 123   23:20   0.00   46.0    88    4.2     6     6.3   974.9    0.00 
 123   23:30   0.00   45.8    90    1.4   330     3.1   975.0    0.00 
 123   23:40   0.00   45.6    89    1.8   278     3.5   974.9    0.00 
 123   23:50   0.00   45.0    90    2.7   279     4.3   974.8    0.00 
 124    0:00   0.00   44.2    92    2.3    15     3.3   974.9    0.00 
 124    0:10   0.00   43.8    92    2.7    19     4.3   975.1    0.00 
 124    0:20   0.00   43.0    93    3.5     2     5.7   975.1    0.00 
 124    0:30   0.00   42.5    94    4.7    14     6.7   974.8    0.00 
 124    0:40   0.00   42.4    95    3.9    10     6.9   974.7    0.00 
 124    0:50   0.00   42.6    95    2.3   346     4.7   974.5    0.00 
 124    1:00   0.00   43.1    95    2.5   277     3.7   974.5    0.00 
 124    1:10   0.00   43.2    95    0.8   351     2.3   974.2    0.00 
 124    1:20   0.00   42.7    95    0.5     1     1.3   974.1    0.00 
 124    1:30   0.00   42.4    95    1.3   344     3.1   974.1    0.00 
 124    1:40   0.00   41.2    96    5.9    11     8.1   974.2    0.00 
 124    1:50   0.00   41.7    96    3.7    10     6.9   974.5    0.00 
 124    2:00   0.00   41.2    96    3.3     3     4.7   974.3    0.00 
 124    2:10   0.00   41.4    97    0.8   308     2.2   974.2    0.00 
 124    2:20   0.00   41.7    97    1.6   286     3.4   974.2    0.00 
 124    2:30   0.00   41.8    96    2.7     1     4.6   974.3    0.00 
 124    2:40   0.00   41.5    97    3.7     3     5.4   974.2    0.00 
 124    2:50   0.00   41.7    97    1.3   298     2.8   974.1    0.00 
 124    3:00   0.00   41.3    97    0.1     9     1.2   974.1    0.00 
 124    3:10   0.00   41.1    97    0.5   317     2.1   974.0    0.00 
 124    3:20   0.00   41.1    97    2.3   282     3.8   974.1    0.00 
 124    3:30   0.00   40.9    97    0.9    32     2.1   974.0    0.00 
 124    3:40   0.00   41.0    97    2.2    18     3.2   974.0    0.00 
 124    3:50   0.00   39.9    98    1.8   317     3.0   974.0    0.00 
 124    4:00   0.00   39.6    98    3.7     1     6.8   974.0    0.00 
 124    4:10   0.00   39.3    98    3.7     2     6.7   974.0    0.00 
 124    4:20   0.00   40.2    99    1.6   328     3.7   974.1    0.00 
 124    4:30   0.00   40.6    98    1.0   356     3.9   974.0    0.00 
 124    4:40   0.00   39.8    98    2.9     2     4.4   973.9    0.00 
 124    4:50   0.00   39.9    98    0.8   215     2.0   973.9    0.00 
 124    5:00   0.00   40.4    98    0.7   300     2.0   974.0    0.00 
 124    5:10   0.00   39.9    98    1.6   296     3.0   974.0    0.00 
 124    5:20   0.01   39.6    98    1.3     1     2.6   974.1    0.00 
 124    5:30   0.01   39.4    98    2.3    17     5.1   974.1    0.00 
 124    5:40   0.02   39.0    99    3.8     3     5.9   974.2    0.00 
 124    5:50   0.02   40.0    99    2.9   355     5.2   974.2    0.00 
 124    6:00   0.04   41.1    99    2.8   360     4.2   974.2    0.00 
 124    6:10   0.11   41.7    99    1.6   315     3.9   974.1    0.00 
 124    6:20   0.17   43.5    99    1.0   292     1.5   974.2    0.00 
 124    6:30   0.21   45.8    98    2.7   273     4.5   974.2    0.00 
 124    6:40   0.24   48.3    96    0.9   340     2.6   974.3    0.00 
 124    6:50   0.28   51.7    91    0.3   290     1.6   974.5    0.00 
 124    7:00   0.32   53.1    84    1.0   107     3.7   974.5    0.00 
 124    7:10   0.35   54.4    79    1.9    91     4.1   974.6    0.00 
 124    7:20   0.39   55.0    74    2.8   118     5.0   974.7    0.00 
 124    7:30   0.42   55.0    72    2.1   161     3.6   974.6    0.00 
 124    7:40   0.46   55.9    68    2.0    91     3.8   974.6    0.00 
 124    7:50   0.50   57.3    64    1.4   194     3.5   974.5    0.00 
 124    8:00   0.53   57.3    64    0.8   200     3.1   974.6    0.00 
 124    8:10   0.56   58.9    60    0.5   270     2.4   974.6    0.00 
 124    8:20   0.61   59.6    60    1.7   113     4.6   974.6    0.00 
 124    8:30   0.61   60.0    59    2.9   249     6.3   974.6    0.00 
 124    8:40   0.78   59.1    58    5.2   253     8.0   974.5    0.00 
 124    8:50   0.64   59.9    58    3.8   247     8.8   974.4    0.00 
 124    9:00   0.46   59.6    58    5.0   234     8.2   974.4    0.00 
 124    9:10   0.53   61.1    55    3.3   139     5.6   974.4    0.00 
 124    9:20   0.74   63.2    52    2.3   205     6.4   974.4    0.00 
 124    9:30   0.86   64.0    50    3.5   273     7.2   974.4    0.00 
 124    9:40   0.66   63.3    49    2.2   319     7.2   974.4    0.00 
 124    9:50   0.59   63.5    47    6.2   253     9.9   974.4    0.00 
 124   10:00   0.53   62.3    49    4.3   236    10.4   974.3    0.00 
 124   10:10   0.50   62.3    48    3.9   236     8.0   974.3    0.00 
 124   10:20   0.98   65.8    45    4.7   175    10.4   974.3    0.00 
 124   10:30   0.85   65.2    47    7.8   179    12.6   974.3    0.00 
 124   10:40   0.72   65.5    49    6.7   197    13.2   974.2    0.00 
 124   10:50   0.67   65.4    47    8.2   194    13.2   974.1    0.00 
 124   11:00   0.62   64.3    47    5.4   211    12.5   974.1    0.00 
 124   11:10   0.56   65.5    47    9.5   178    15.8   974.1    0.00 
 124   11:20   0.51   63.7    48    6.2   208    11.9   974.1    0.00 
 124   11:30   0.58   65.1    46    6.1   170    12.0   974.0    0.00 
 124   11:40   0.19   63.8    47    6.1   270    11.5   974.0    0.00 
 124   11:50   0.29   63.1    46    7.8   280    12.3   974.1    0.00 
 124   12:00   0.69   64.1    48    6.3   294    12.0   974.0    0.00 
 124   12:10   0.92   66.2    41    7.9   246    16.6   974.0    0.00 
 124   12:20   1.04   67.4    40    5.7   214    11.7   973.9    0.00 
 124   12:30   0.72   68.0    40    7.8   278    14.8   974.0    0.00 
 124   12:40   0.42   65.0    44    8.3   264    15.7   974.1    0.00 
 124   12:50   0.49   64.0    49    9.3   241    15.6   974.2    0.00 
 124   13:00   0.37   63.0    52    9.4   242    15.3   974.2    0.00 
 124   13:10   0.45   63.4    52    7.2   242    13.2   974.2    0.00 
 124   13:20   0.42   63.7    52    8.9   228    17.1   974.2    0.00 
 124   13:30   0.60   63.6    54   10.2   292    15.9   974.3    0.00 
 124   13:40   0.59   64.8    52    8.2   306    13.8   974.3    0.00 
 124   13:50   0.54   64.8    51    5.0   320    10.7   974.3    0.00 
 124   14:00   0.57   64.7    54    4.6   344    11.0   974.1    0.00 
 124   14:10   0.50   65.0    58    4.4   314     8.7   974.1    0.00 
 124   14:20   0.27   63.6    56    3.9   312     8.9   974.0    0.00 
 124   14:30   0.26   63.3    56    3.0   216    11.0   973.9    0.00 
 124   14:40   0.21   61.8    59    7.3   210    16.3   973.8    0.00 
 124   14:50   0.17   61.7    59    8.2   265    17.5   973.7    0.00 
 124   15:00   0.24   60.2    67    6.7   291    12.5   973.6    0.00 
 124   15:10   0.26   59.7    76    4.8   349     8.9   973.5    0.00 
 124   15:20   0.28   59.5    77    7.2    12    11.4   973.5    0.00 
 124   15:30   0.23   58.8    78    8.5    12    12.4   973.5    0.00 
 124   15:40   0.19   58.4    79    7.7    16    11.3   973.4    0.00 
 124   15:50   0.19   59.0    77    7.3    13    12.5   973.4    0.00 
 124   16:00   0.16   58.9    75    6.4    10    10.5   973.4    0.00 
 124   16:10   0.13   58.8    74    4.6   359     8.2   973.4    0.00 
 124   16:20   0.22   58.7    74    5.7    10     9.3   973.4    0.00 
 124   16:30   0.22   59.1    73    6.1     8     8.8   973.5    0.00 
 124   16:40   0.18   59.7    71    4.8    19     9.0   973.7    0.00 
 124   16:50   0.14   60.1    70    3.6    21     6.7   973.6    0.00 
 124   17:00   0.12   60.0    68    4.1    12     6.7   973.5    0.00 
 124   17:10   0.09   59.8    66    3.3   323     5.7   973.6    0.00 
 124   17:20   0.06   59.5    68    5.4   341    10.2   973.6    0.00 
 124   17:30   0.05   58.7    70    4.5   337     9.5   973.5    0.00 
 124   17:40   0.04   58.1    71    4.7   317    10.9   973.5    0.00 
 124   17:50   0.02   57.8    72    3.1   311     6.5   973.5    0.00 
 124   18:00   0.01   57.5    71    4.3   326    10.3   973.5    0.00 
 124   18:10   0.02   57.0    72    3.7   324     8.5   973.5    0.00 
 124   18:20   0.01   56.8    72    3.9   322     9.0   973.5    0.00 
 124   18:30   0.01   56.5    71    4.7   320     8.8   973.5    0.00 
 124   18:40   0.01   56.2    72    4.0   330     8.3   973.5    0.00 
 124   18:50   0.01   55.8    75    3.6   326     6.4   973.6    0.00 
 124   19:00   0.00   55.2    77    1.9   319     4.5   973.7    0.00 
 124   19:10   0.00   54.8    80    3.0   304     6.5   973.9    0.00 
 124   19:20   0.00   54.1    80    6.5   312    11.1   974.0    0.00 
 124   19:30   0.00   53.7    80    6.9   318    10.4   974.1    0.00 
 124   19:40   0.00   52.9    84    6.5   323    10.1   974.2    0.00 
 124   19:50   0.00   52.2    85    6.8   324    11.1   974.3    0.00 
 124   20:00   0.00   51.9    86    6.8   322    11.3   974.3    0.00 
 124   20:10   0.00   51.7    86    6.1   322     9.4   974.4    0.01 
 124   20:20   0.00   51.7    87    5.0   320     8.1   974.5    0.00 
 124   20:30   0.00   51.6    88    5.7   315     8.7   974.5    0.00 
 124   20:40   0.00   51.7    88    5.0   312     7.5   974.5    0.00 

Return to Sedgwick Reserve graphs page.


Western Regional Climate Center,wrcc@dri.edu